createdAt,value
2023-05-09T00:00:46.512Z,95470.00
2023-05-09T00:01:46.604Z,95474.00
2023-05-09T00:02:46.502Z,95470.00
2023-05-09T00:03:46.509Z,95468.00
2023-05-09T00:04:46.552Z,95470.00
2023-05-09T00:05:46.572Z,95472.00
2023-05-09T00:06:46.669Z,95470.00
2023-05-09T00:07:46.739Z,95466.00
2023-05-09T00:08:46.792Z,95468.00
2023-05-09T00:09:46.812Z,95470.00
2023-05-09T00:10:46.797Z,95462.00
2023-05-09T00:11:46.921Z,95464.00
2023-05-09T00:12:46.945Z,95458.00
2023-05-09T00:13:46.990Z,95456.00
2023-05-09T00:14:47.115Z,95452.00
2023-05-09T00:15:47.043Z,95454.00
2023-05-09T00:16:47.149Z,95454.00
2023-05-09T00:17:47.209Z,95452.00
2023-05-09T00:18:47.201Z,95450.00
2023-05-09T00:19:47.234Z,95452.00
2023-05-09T00:20:47.197Z,95450.00
2023-05-09T00:21:47.226Z,95452.00
2023-05-09T00:22:47.240Z,95452.00
2023-05-09T00:23:47.227Z,95452.00
2023-05-09T00:24:47.302Z,95454.00
2023-05-09T00:25:47.321Z,95450.00
2023-05-09T00:26:47.318Z,95452.00
2023-05-09T00:27:47.386Z,95452.00
2023-05-09T00:28:47.448Z,95450.00
2023-05-09T00:29:47.431Z,95452.00
2023-05-09T00:30:47.533Z,95450.00
2023-05-09T00:31:47.503Z,95448.00
2023-05-09T00:32:47.547Z,95450.00
2023-05-09T00:33:47.593Z,95450.00
2023-05-09T00:34:47.574Z,95448.00
2023-05-09T00:35:47.641Z,95446.00
2023-05-09T00:36:47.655Z,95446.00
2023-05-09T00:37:47.653Z,95448.00
2023-05-09T00:38:47.669Z,95448.00
2023-05-09T00:39:47.720Z,95446.00
2023-05-09T00:40:47.777Z,95444.00
2023-05-09T00:41:47.751Z,95444.00
2023-05-09T00:42:47.776Z,95442.00
2023-05-09T00:43:47.801Z,95444.00
2023-05-09T00:44:47.805Z,95440.00
2023-05-09T00:45:47.909Z,95440.00
2023-05-09T00:46:47.931Z,95442.00
2023-05-09T00:47:47.956Z,95438.00
2023-05-09T00:48:47.831Z,95438.00
2023-05-09T00:49:47.892Z,95436.00
2023-05-09T00:50:47.840Z,95430.00
2023-05-09T00:51:47.851Z,95430.00
2023-05-09T00:52:47.924Z,95429.00
2023-05-09T00:53:47.858Z,95427.00
2023-05-09T00:54:47.904Z,95430.00
2023-05-09T00:55:47.936Z,95430.00
2023-05-09T00:56:47.887Z,95429.00
2023-05-09T00:57:47.919Z,95427.00
2023-05-09T00:58:47.937Z,95427.00
2023-05-09T00:59:47.943Z,95430.00
2023-05-09T01:00:48.228Z,95429.00
2023-05-09T01:01:48.062Z,95427.00
2023-05-09T01:02:48.131Z,95429.00
2023-05-09T01:03:48.035Z,95423.00
2023-05-09T01:04:48.016Z,95425.00
2023-05-09T01:05:47.987Z,95425.00
2023-05-09T01:06:48.019Z,95427.00
2023-05-09T01:07:47.963Z,95425.00
2023-05-09T01:08:47.967Z,95423.00
2023-05-09T01:09:48.032Z,95419.00
2023-05-09T01:10:48.034Z,95419.00
2023-05-09T01:11:48.051Z,95423.00
2023-05-09T01:12:48.057Z,95419.00
2023-05-09T01:13:48.050Z,95417.00
2023-05-09T01:14:48.045Z,95415.00
2023-05-09T01:15:48.140Z,95415.00
2023-05-09T01:16:48.139Z,95415.00
2023-05-09T01:17:48.175Z,95415.00
2023-05-09T01:18:48.258Z,95415.00
2023-05-09T01:19:48.275Z,95415.00
2023-05-09T01:20:48.179Z,95413.00
2023-05-09T01:21:48.223Z,95409.00
2023-05-09T01:22:48.248Z,95411.00
2023-05-09T01:23:48.247Z,95411.00
2023-05-09T01:24:48.253Z,95409.00
2023-05-09T01:25:48.318Z,95407.00
2023-05-09T01:26:48.335Z,95407.00
2023-05-09T01:27:48.299Z,95405.00
2023-05-09T01:28:48.377Z,95405.00
2023-05-09T01:29:48.389Z,95403.00
2023-05-09T01:30:48.396Z,95409.00
2023-05-09T01:31:48.489Z,95409.00
2023-05-09T01:32:48.428Z,95411.00
2023-05-09T01:33:48.381Z,95411.00
2023-05-09T01:34:48.489Z,95413.00
2023-05-09T01:35:48.436Z,95411.00
2023-05-09T01:36:48.433Z,95413.00
2023-05-09T01:37:48.434Z,95411.00
2023-05-09T01:38:48.487Z,95411.00
2023-05-09T01:39:48.484Z,95411.00
2023-05-09T01:40:48.484Z,95407.00
2023-05-09T01:41:48.504Z,95409.00
2023-05-09T01:42:48.520Z,95409.00
2023-05-09T01:43:48.520Z,95407.00
2023-05-09T01:44:48.518Z,95407.00
2023-05-09T01:45:48.538Z,95407.00
2023-05-09T01:46:48.558Z,95405.00
2023-05-09T01:47:48.612Z,95407.00
2023-05-09T01:48:48.548Z,95405.00
2023-05-09T01:49:48.542Z,95409.00
2023-05-09T01:50:48.681Z,95407.00
2023-05-09T01:51:48.534Z,95407.00
2023-05-09T01:52:48.604Z,95407.00
2023-05-09T01:53:48.605Z,95405.00
2023-05-09T01:54:48.636Z,95405.00
2023-05-09T01:55:48.633Z,95405.00
2023-05-09T01:56:48.605Z,95403.00
2023-05-09T01:57:48.615Z,95403.00
2023-05-09T01:58:48.600Z,95399.00
2023-05-09T01:59:48.626Z,95399.00
2023-05-09T02:00:48.683Z,95403.00
2023-05-09T02:01:48.666Z,95401.00
2023-05-09T02:02:48.870Z,95399.00
2023-05-09T02:03:48.628Z,95389.00
2023-05-09T02:04:48.616Z,95399.00
2023-05-09T02:05:48.644Z,95391.00
2023-05-09T02:06:48.738Z,95399.00
2023-05-09T02:07:48.688Z,95391.00
2023-05-09T02:08:48.668Z,95391.00
2023-05-09T02:09:48.673Z,95389.00
2023-05-09T02:10:48.642Z,95389.00
2023-05-09T02:11:48.706Z,95391.00
2023-05-09T02:12:48.763Z,95391.00
2023-05-09T02:13:48.647Z,95391.00
2023-05-09T02:14:48.690Z,95389.00
2023-05-09T02:15:48.694Z,95385.00
2023-05-09T02:16:48.703Z,95383.00
2023-05-09T02:17:48.709Z,95387.00
2023-05-09T02:18:48.690Z,95383.00
2023-05-09T02:19:48.728Z,95381.00
2023-05-09T02:20:48.758Z,95383.00
2023-05-09T02:21:48.743Z,95381.00
2023-05-09T02:22:48.866Z,95379.00
2023-05-09T02:23:48.875Z,95381.00
2023-05-09T02:24:48.971Z,95381.00
2023-05-09T02:25:48.966Z,95381.00
2023-05-09T02:26:49.011Z,95381.00
2023-05-09T02:27:49.048Z,95379.00
2023-05-09T02:28:49.064Z,95381.00
2023-05-09T02:29:49.160Z,95376.00
2023-05-09T02:30:49.222Z,95377.00
2023-05-09T02:31:49.305Z,95376.00
2023-05-09T02:32:49.309Z,95376.00
2023-05-09T02:33:49.327Z,95376.00
2023-05-09T02:34:49.312Z,95370.00
2023-05-09T02:35:49.352Z,95372.00
2023-05-09T02:36:49.378Z,95372.00
2023-05-09T02:37:49.417Z,95372.00
2023-05-09T02:38:49.490Z,95370.00
2023-05-09T02:39:49.435Z,95376.00
2023-05-09T02:40:50.976Z,95376.00
2023-05-09T02:41:49.506Z,95376.00
2023-05-09T02:42:49.463Z,95374.00
2023-05-09T02:43:49.472Z,95370.00
2023-05-09T02:44:49.453Z,95370.00
2023-05-09T02:45:49.439Z,95372.00
2023-05-09T02:46:49.455Z,95372.00
2023-05-09T02:47:49.513Z,95372.00
2023-05-09T02:48:49.449Z,95370.00
2023-05-09T02:49:49.410Z,95370.00
2023-05-09T02:50:49.421Z,95372.00
2023-05-09T02:51:49.425Z,95366.00
2023-05-09T02:52:49.397Z,95364.00
2023-05-09T02:53:49.388Z,95364.00
2023-05-09T02:54:49.488Z,95366.00
2023-05-09T02:55:49.405Z,95368.00
2023-05-09T02:56:49.408Z,95368.00
2023-05-09T02:57:54.101Z,95366.00
2023-05-09T02:58:50.361Z,95368.00
2023-05-09T02:59:49.335Z,95366.00
2023-05-09T03:00:49.353Z,95368.00
2023-05-09T03:01:49.401Z,95366.00
2023-05-09T03:02:49.417Z,95366.00
2023-05-09T03:03:49.424Z,95368.00
2023-05-09T03:04:49.344Z,95364.00
2023-05-09T03:05:49.330Z,95362.00
2023-05-09T03:06:49.323Z,95358.00
2023-05-09T03:07:49.320Z,95360.00
2023-05-09T03:08:49.291Z,95360.00
2023-05-09T03:09:49.349Z,95358.00
2023-05-09T03:10:49.406Z,95362.00
2023-05-09T03:11:49.304Z,95358.00
2023-05-09T03:12:49.345Z,95362.00
2023-05-09T03:13:49.325Z,95358.00
2023-05-09T03:14:49.376Z,95364.00
2023-05-09T03:15:49.473Z,95358.00
2023-05-09T03:16:49.516Z,95360.00
2023-05-09T03:17:49.587Z,95356.00
2023-05-09T03:18:49.568Z,95352.00
2023-05-09T03:19:49.608Z,95356.00
2023-05-09T03:20:49.723Z,95352.00
2023-05-09T03:21:49.701Z,95354.00
2023-05-09T03:22:49.790Z,95358.00
2023-05-09T03:23:49.815Z,95356.00
2023-05-09T03:24:49.866Z,95354.00
2023-05-09T03:25:49.935Z,95354.00
2023-05-09T03:26:49.974Z,95358.00
2023-05-09T03:27:50.047Z,95354.00
2023-05-09T03:28:50.023Z,95352.00
2023-05-09T03:29:50.059Z,95356.00
2023-05-09T03:30:50.076Z,95356.00
2023-05-09T03:31:50.197Z,95356.00
2023-05-09T03:32:50.188Z,95356.00
2023-05-09T03:33:50.161Z,95354.00
2023-05-09T03:34:50.257Z,95348.00
2023-05-09T03:35:50.336Z,95350.00
2023-05-09T03:36:50.346Z,95350.00
2023-05-09T03:37:50.415Z,95354.00
2023-05-09T03:38:50.445Z,95350.00
2023-05-09T03:39:50.489Z,95356.00
2023-05-09T03:40:50.469Z,95354.00
2023-05-09T03:41:50.476Z,95354.00
2023-05-09T03:42:51.097Z,95352.00
2023-05-09T03:43:50.619Z,95350.00
2023-05-09T03:44:50.669Z,95352.00
2023-05-09T03:45:50.669Z,95354.00
2023-05-09T03:46:50.846Z,95354.00
2023-05-09T03:47:50.814Z,95352.00
2023-05-09T03:48:50.809Z,95348.00
2023-05-09T03:49:50.866Z,95348.00
2023-05-09T03:50:50.875Z,95346.00
2023-05-09T03:51:50.964Z,95350.00
2023-05-09T03:52:50.891Z,95350.00
2023-05-09T03:53:50.981Z,95348.00
2023-05-09T03:54:50.957Z,95350.00
2023-05-09T03:55:50.957Z,95350.00
2023-05-09T03:56:50.993Z,95348.00
2023-05-09T03:57:51.038Z,95348.00
2023-05-09T03:58:51.184Z,95350.00
2023-05-09T03:59:51.136Z,95348.00
2023-05-09T04:00:51.212Z,95344.00
2023-05-09T04:01:52.465Z,95350.00
2023-05-09T04:02:51.417Z,95348.00
2023-05-09T04:03:51.441Z,95348.00
2023-05-09T04:04:51.347Z,95348.00
2023-05-09T04:05:51.363Z,95344.00
2023-05-09T04:06:52.570Z,95348.00
2023-05-09T04:07:51.384Z,95346.00
2023-05-09T04:08:51.472Z,95356.00
2023-05-09T04:09:51.497Z,95350.00
2023-05-09T04:10:51.565Z,95352.00
2023-05-09T04:11:51.579Z,95352.00
2023-05-09T04:12:51.631Z,95352.00
2023-05-09T04:13:51.636Z,95352.00
2023-05-09T04:14:51.778Z,95350.00
2023-05-09T04:15:51.746Z,95350.00
2023-05-09T04:16:51.768Z,95350.00
2023-05-09T04:17:51.854Z,95350.00
2023-05-09T04:18:51.852Z,95350.00
2023-05-09T04:19:51.941Z,95350.00
2023-05-09T04:20:51.950Z,95350.00
2023-05-09T04:21:52.044Z,95346.00
2023-05-09T04:22:52.078Z,95348.00
2023-05-09T04:23:52.118Z,95350.00
2023-05-09T04:24:52.137Z,95352.00
2023-05-09T04:25:52.206Z,95350.00
2023-05-09T04:26:52.206Z,95354.00
2023-05-09T04:27:52.329Z,95356.00
2023-05-09T04:28:52.298Z,95356.00
2023-05-09T04:29:52.383Z,95358.00
2023-05-09T04:30:52.619Z,95356.00
2023-05-09T04:31:52.620Z,95356.00
2023-05-09T04:32:52.580Z,95358.00
2023-05-09T04:33:52.551Z,95358.00
2023-05-09T04:34:52.597Z,95356.00
2023-05-09T04:35:52.666Z,95352.00
2023-05-09T04:36:52.720Z,95356.00
2023-05-09T04:37:52.793Z,95356.00
2023-05-09T04:38:52.807Z,95358.00
2023-05-09T04:39:52.882Z,95356.00
2023-05-09T04:40:52.854Z,95352.00
2023-05-09T04:41:52.937Z,95354.00
2023-05-09T04:42:52.982Z,95352.00
2023-05-09T04:43:53.050Z,95352.00
2023-05-09T04:44:53.102Z,95350.00
2023-05-09T04:45:53.162Z,95350.00
2023-05-09T04:46:53.209Z,95350.00
2023-05-09T04:47:53.228Z,95348.00
2023-05-09T04:48:53.189Z,95342.00
2023-05-09T04:49:53.207Z,95348.00
2023-05-09T04:50:53.279Z,95348.00
2023-05-09T04:51:54.467Z,95348.00
2023-05-09T04:52:53.386Z,95346.00
2023-05-09T04:53:53.379Z,95344.00
2023-05-09T04:54:53.401Z,95348.00
2023-05-09T04:55:53.443Z,95346.00
2023-05-09T04:56:57.941Z,95346.00
2023-05-09T04:57:54.478Z,95350.00
2023-05-09T04:58:53.474Z,95346.00
2023-05-09T04:59:53.465Z,95348.00
2023-05-09T05:02:13.181Z,95350.00
2023-05-09T05:03:13.094Z,95350.00
2023-05-09T05:04:13.475Z,95344.00
2023-05-09T05:05:13.113Z,95346.00
2023-05-09T05:06:13.109Z,95346.00
2023-05-09T05:07:13.437Z,95344.00
2023-05-09T05:08:13.106Z,95346.00
2023-05-09T05:09:13.073Z,95346.00
2023-05-09T05:10:13.042Z,95344.00
2023-05-09T05:11:13.044Z,95344.00
2023-05-09T05:12:13.068Z,95344.00
2023-05-09T05:13:13.127Z,95340.00
2023-05-09T05:14:13.029Z,95342.00
2023-05-09T05:15:13.422Z,95338.00
2023-05-09T05:16:13.078Z,95340.00
2023-05-09T05:17:13.016Z,95342.00
2023-05-09T05:18:13.095Z,95340.00
2023-05-09T05:19:12.989Z,95342.00
2023-05-09T05:20:13.069Z,95342.00
2023-05-09T05:21:13.062Z,95342.00
2023-05-09T05:22:13.072Z,95340.00
2023-05-09T05:23:13.000Z,95340.00
2023-05-09T05:24:13.332Z,95340.00
2023-05-09T05:25:13.134Z,95340.00
2023-05-09T05:26:12.986Z,95340.00
2023-05-09T05:27:12.965Z,95340.00
2023-05-09T05:28:13.328Z,95340.00
2023-05-09T05:29:13.093Z,95340.00
2023-05-09T05:30:13.249Z,95344.00
2023-05-09T05:31:12.957Z,95342.00
2023-05-09T05:32:13.062Z,95344.00
2023-05-09T05:33:12.901Z,95344.00
2023-05-09T05:34:12.964Z,95344.00
2023-05-09T05:35:13.840Z,95344.00
2023-05-09T05:36:12.949Z,95344.00
2023-05-09T05:37:13.009Z,95348.00
2023-05-09T05:38:12.948Z,95348.00
2023-05-09T05:39:13.329Z,95344.00
2023-05-09T05:40:13.296Z,95348.00
2023-05-09T05:41:12.918Z,95350.00
2023-05-09T05:42:13.410Z,95346.00
2023-05-09T05:43:13.883Z,95348.00
2023-05-09T05:44:12.948Z,95346.00
2023-05-09T05:45:13.123Z,95344.00
2023-05-09T05:47:40.575Z,95344.00
2023-05-09T05:48:32.940Z,95342.00
2023-05-09T05:49:32.955Z,95346.00
2023-05-09T05:50:32.923Z,95342.00
2023-05-09T05:51:32.882Z,95346.00
2023-05-09T05:52:32.899Z,95340.00
2023-05-09T05:53:32.987Z,95342.00
2023-05-09T05:54:32.979Z,95344.00
2023-05-09T05:55:33.054Z,95342.00
2023-05-09T05:56:33.014Z,95342.00
2023-05-09T05:57:32.993Z,95340.00
2023-05-09T05:58:33.032Z,95340.00
2023-05-09T05:59:33.039Z,95338.00
2023-05-09T06:00:33.029Z,95338.00
2023-05-09T06:01:33.029Z,95336.00
2023-05-09T06:02:33.224Z,95338.00
2023-05-09T06:03:33.190Z,95334.00
2023-05-09T06:04:33.986Z,95336.00
2023-05-09T06:05:33.297Z,95332.00
2023-05-09T06:06:33.299Z,95329.00
2023-05-09T06:07:33.543Z,95329.00
2023-05-09T06:08:33.343Z,95327.00
2023-05-09T06:09:33.416Z,95327.00
2023-05-09T06:10:33.457Z,95323.00
2023-05-09T06:11:33.501Z,95327.00
2023-05-09T06:12:33.545Z,95327.00
2023-05-09T06:13:33.536Z,95327.00
2023-05-09T06:14:33.606Z,95327.00
2023-05-09T06:15:33.621Z,95329.00
2023-05-09T06:16:33.667Z,95323.00
2023-05-09T06:17:33.767Z,95327.00
2023-05-09T06:18:33.749Z,95327.00
2023-05-09T06:19:33.824Z,95327.00
2023-05-09T06:20:33.868Z,95329.00
2023-05-09T06:21:33.868Z,95325.00
2023-05-09T06:22:33.860Z,95323.00
2023-05-09T06:23:33.859Z,95325.00
2023-05-09T06:24:36.277Z,95327.00
2023-05-09T06:25:33.888Z,95327.00
2023-05-09T06:26:33.889Z,95325.00
2023-05-09T06:27:34.027Z,95327.00
2023-05-09T06:28:33.859Z,95327.00
2023-05-09T06:29:33.846Z,95325.00
2023-05-09T06:30:33.837Z,95323.00
2023-05-09T06:31:34.001Z,95323.00
2023-05-09T06:32:33.913Z,95321.00
2023-05-09T06:33:33.822Z,95321.00
2023-05-09T06:34:33.802Z,95317.00
2023-05-09T06:35:33.776Z,95315.00
2023-05-09T06:36:33.796Z,95313.00
2023-05-09T06:37:34.112Z,95313.00
2023-05-09T06:38:33.997Z,95315.00
2023-05-09T06:39:33.860Z,95311.00
2023-05-09T06:40:33.835Z,95313.00
2023-05-09T06:41:33.719Z,95315.00
2023-05-09T06:42:34.029Z,95315.00
2023-05-09T06:43:33.872Z,95315.00
2023-05-09T06:44:33.729Z,95313.00
2023-05-09T06:45:33.788Z,95313.00
2023-05-09T06:46:33.846Z,95311.00
2023-05-09T06:47:34.031Z,95313.00
2023-05-09T06:48:33.737Z,95309.00
2023-05-09T06:49:33.725Z,95311.00
2023-05-09T06:50:33.667Z,95309.00
2023-05-09T06:51:33.730Z,95309.00
2023-05-09T06:52:33.754Z,95307.00
2023-05-09T06:53:34.083Z,95311.00
2023-05-09T06:54:33.720Z,95307.00
2023-05-09T06:55:33.677Z,95305.00
2023-05-09T06:56:33.729Z,95307.00
2023-05-09T06:57:33.645Z,95305.00
2023-05-09T06:58:34.056Z,95299.00
2023-05-09T06:59:33.695Z,95303.00
2023-05-09T07:00:33.704Z,95301.00
2023-05-09T07:01:33.716Z,95301.00
2023-05-09T07:02:33.676Z,95301.00
2023-05-09T07:03:33.717Z,95297.00
2023-05-09T07:04:33.653Z,95301.00
2023-05-09T07:05:33.712Z,95299.00
2023-05-09T07:06:33.626Z,95301.00
2023-05-09T07:07:33.639Z,95303.00
2023-05-09T07:08:34.731Z,95299.00
2023-05-09T07:09:33.656Z,95297.00
2023-05-09T07:10:33.612Z,95301.00
2023-05-09T07:11:33.626Z,95303.00
2023-05-09T07:12:33.592Z,95299.00
2023-05-09T07:13:34.120Z,95299.00
2023-05-09T07:14:33.556Z,95299.00
2023-05-09T07:15:41.508Z,95301.00
2023-05-09T07:16:37.249Z,95299.00
2023-05-09T07:17:33.655Z,95295.00
2023-05-09T07:18:34.049Z,95297.00
2023-05-09T07:19:33.631Z,95293.00
2023-05-09T07:20:33.538Z,95291.00
2023-05-09T07:21:33.484Z,95287.00
2023-05-09T07:22:35.539Z,95287.00
2023-05-09T07:23:33.756Z,95287.00
2023-05-09T07:24:33.656Z,95283.00
2023-05-09T07:25:33.558Z,95283.00
2023-05-09T07:26:33.485Z,95282.00
2023-05-09T07:27:33.495Z,95285.00
2023-05-09T07:28:34.095Z,95285.00
2023-05-09T07:29:33.490Z,95283.00
2023-05-09T07:30:33.486Z,95283.00
2023-05-09T07:31:35.993Z,95283.00
2023-05-09T07:32:33.500Z,95285.00
2023-05-09T07:33:33.549Z,95282.00
2023-05-09T07:34:33.578Z,95282.00
2023-05-09T07:35:33.380Z,95274.00
2023-05-09T07:36:35.509Z,95278.00
2023-05-09T07:37:33.456Z,95272.00
2023-05-09T07:38:33.558Z,95272.00
2023-05-09T07:39:33.450Z,95272.00
2023-05-09T07:40:33.365Z,95274.00
2023-05-09T07:41:33.445Z,95270.00
2023-05-09T07:42:33.383Z,95272.00
2023-05-09T07:43:33.682Z,95270.00
2023-05-09T07:44:33.369Z,95270.00
2023-05-09T07:45:33.432Z,95268.00
2023-05-09T07:46:33.350Z,95266.00
2023-05-09T07:47:33.395Z,95264.00
2023-05-09T07:48:33.616Z,95266.00
2023-05-09T07:49:33.406Z,95266.00
2023-05-09T07:50:33.346Z,95262.00
2023-05-09T07:51:33.314Z,95262.00
2023-05-09T07:52:33.355Z,95258.00
2023-05-09T07:53:33.437Z,95254.00
2023-05-09T07:54:33.530Z,95252.00
2023-05-09T07:55:33.523Z,95252.00
2023-05-09T07:56:33.564Z,95252.00
2023-05-09T07:57:33.631Z,95248.00
2023-05-09T07:58:33.670Z,95252.00
2023-05-09T07:59:33.696Z,95248.00
2023-05-09T08:00:33.764Z,95250.00
2023-05-09T08:01:33.761Z,95248.00
2023-05-09T08:02:33.901Z,95246.00
2023-05-09T08:03:33.993Z,95244.00
2023-05-09T08:04:33.940Z,95244.00
2023-05-09T08:05:33.849Z,95240.00
2023-05-09T08:06:33.866Z,95240.00
2023-05-09T08:07:33.841Z,95238.00
2023-05-09T08:08:33.883Z,95235.00
2023-05-09T08:09:34.079Z,95235.00
2023-05-09T08:10:33.875Z,95235.00
2023-05-09T08:11:33.907Z,95233.00
2023-05-09T08:12:33.902Z,95233.00
2023-05-09T08:13:34.627Z,95231.00
2023-05-09T08:14:34.088Z,95231.00
2023-05-09T08:15:34.046Z,95231.00
2023-05-09T08:16:34.095Z,95225.00
2023-05-09T08:17:33.978Z,95225.00
2023-05-09T08:18:34.061Z,95223.00
2023-05-09T08:19:34.133Z,95223.00
2023-05-09T08:20:34.068Z,95219.00
2023-05-09T08:21:34.257Z,95219.00
2023-05-09T08:22:34.246Z,95211.00
2023-05-09T08:23:34.361Z,95209.00
2023-05-09T08:24:34.642Z,95209.00
2023-05-09T08:25:34.378Z,95207.00
2023-05-09T08:26:34.413Z,95203.00
2023-05-09T08:27:34.404Z,95201.00
2023-05-09T08:28:34.513Z,95199.00
2023-05-09T08:29:34.525Z,95201.00
2023-05-09T08:30:34.513Z,95199.00
2023-05-09T08:31:34.648Z,95199.00
2023-05-09T08:32:34.769Z,95197.00
2023-05-09T08:33:34.756Z,95195.00
2023-05-09T08:34:35.584Z,95191.00
2023-05-09T08:35:35.607Z,95187.00
2023-05-09T08:36:34.792Z,95185.00
2023-05-09T08:37:34.803Z,95183.00
2023-05-09T08:38:34.887Z,95180.00
2023-05-09T08:39:35.099Z,95174.00
2023-05-09T08:40:34.891Z,95174.00
2023-05-09T08:41:35.004Z,95170.00
2023-05-09T08:42:35.066Z,95172.00
2023-05-09T08:43:35.104Z,95170.00
2023-05-09T08:44:35.647Z,95170.00
2023-05-09T08:45:35.252Z,95166.00
2023-05-09T08:46:35.287Z,95170.00
2023-05-09T08:47:35.398Z,95170.00
2023-05-09T08:48:36.051Z,95168.00
2023-05-09T08:49:35.685Z,95166.00
2023-05-09T08:50:35.678Z,95164.00
2023-05-09T08:51:35.585Z,95160.00
2023-05-09T08:52:35.555Z,95162.00
2023-05-09T08:53:35.622Z,95160.00
2023-05-09T08:54:36.107Z,95158.00
2023-05-09T08:55:35.714Z,95154.00
2023-05-09T08:56:35.747Z,95154.00
2023-05-09T08:57:35.847Z,95158.00
2023-05-09T08:58:35.847Z,95156.00
2023-05-09T08:59:35.879Z,95156.00
2023-05-09T09:00:35.865Z,95150.00
2023-05-09T09:01:36.045Z,95150.00
2023-05-09T09:02:35.911Z,95148.00
2023-05-09T09:03:35.970Z,95148.00
2023-05-09T09:04:36.134Z,95148.00
2023-05-09T09:06:36.105Z,95132.00
2023-05-09T09:07:36.100Z,95132.00
2023-05-09T09:08:36.091Z,95128.00
2023-05-09T09:09:36.158Z,95123.00
2023-05-09T09:10:36.266Z,95119.00
2023-05-09T09:11:36.060Z,95119.00
2023-05-09T09:12:36.035Z,95117.00
2023-05-09T09:13:36.201Z,95117.00
2023-05-09T09:14:36.152Z,95115.00
2023-05-09T09:15:36.496Z,95115.00
2023-05-09T09:16:36.072Z,95111.00
2023-05-09T09:17:36.125Z,95107.00
2023-05-09T09:18:36.059Z,95107.00
2023-05-09T09:19:36.106Z,95105.00
2023-05-09T09:20:35.986Z,95099.00
2023-05-09T09:21:36.119Z,95099.00
2023-05-09T09:22:36.017Z,95099.00
2023-05-09T09:23:36.032Z,95099.00
2023-05-09T09:24:36.036Z,95101.00
2023-05-09T09:25:36.035Z,95097.00
2023-05-09T09:26:35.993Z,95101.00
2023-05-09T09:27:35.949Z,95097.00
2023-05-09T09:28:35.958Z,95095.00
2023-05-09T09:29:35.947Z,95093.00
2023-05-09T09:30:36.152Z,95089.00
2023-05-09T09:31:35.936Z,95091.00
2023-05-09T09:32:35.995Z,95083.00
2023-05-09T09:33:35.994Z,95083.00
2023-05-09T09:34:35.888Z,95083.00
2023-05-09T09:35:35.922Z,95076.00
2023-05-09T09:36:35.902Z,95076.00
2023-05-09T09:37:35.950Z,95074.00
2023-05-09T09:38:35.924Z,95072.00
2023-05-09T09:39:35.915Z,95072.00
2023-05-09T09:40:36.073Z,95070.00
2023-05-09T09:41:35.943Z,95064.00
2023-05-09T09:42:36.056Z,95062.00
2023-05-09T09:43:36.176Z,95058.00
2023-05-09T09:44:36.108Z,95054.00
2023-05-09T09:45:36.718Z,95054.00
2023-05-09T09:46:36.397Z,95050.00
2023-05-09T09:47:36.259Z,95050.00
2023-05-09T09:48:36.216Z,95044.00
2023-05-09T09:49:36.318Z,95046.00
2023-05-09T09:50:37.127Z,95042.00
2023-05-09T09:51:36.327Z,95036.00
2023-05-09T09:52:36.339Z,95036.00
2023-05-09T09:53:36.342Z,95032.00
2023-05-09T09:54:36.461Z,95034.00
2023-05-09T09:55:36.526Z,95030.00
2023-05-09T09:56:36.471Z,95028.00
2023-05-09T09:57:36.484Z,95026.00
2023-05-09T09:58:36.477Z,95026.00
2023-05-09T09:59:36.569Z,95017.00
2023-05-09T10:00:36.583Z,95019.00
2023-05-09T10:01:36.699Z,95019.00
2023-05-09T10:02:36.715Z,95015.00
2023-05-09T10:03:36.753Z,95009.00
2023-05-09T10:04:36.842Z,95005.00
2023-05-09T10:05:36.805Z,95005.00
2023-05-09T10:06:36.716Z,95003.00
2023-05-09T10:07:36.760Z,95001.00
2023-05-09T10:08:36.848Z,94999.00
2023-05-09T10:09:36.856Z,94999.00
2023-05-09T10:10:36.961Z,94997.00
2023-05-09T10:11:36.950Z,94995.00
2023-05-09T10:12:36.899Z,94993.00
2023-05-09T10:13:36.984Z,94991.00
2023-05-09T10:14:38.008Z,94989.00
2023-05-09T10:15:49.291Z,94987.00
2023-05-09T10:16:43.928Z,94985.00
2023-05-09T10:17:38.123Z,94983.00
2023-05-09T10:18:37.211Z,94981.00
2023-05-09T10:19:36.937Z,94981.00
2023-05-09T10:20:37.942Z,94976.00
2023-05-09T10:21:38.027Z,94976.00
2023-05-09T10:22:36.934Z,94974.00
2023-05-09T10:23:36.947Z,94972.00
2023-05-09T10:24:36.971Z,94970.00
2023-05-09T10:25:37.091Z,94966.00
2023-05-09T10:26:36.884Z,94966.00
2023-05-09T10:27:36.871Z,94960.00
2023-05-09T10:28:36.979Z,94954.00
2023-05-09T10:29:36.930Z,94954.00
2023-05-09T10:30:36.998Z,94954.00
2023-05-09T10:31:37.059Z,94952.00
2023-05-09T10:32:37.041Z,94952.00
2023-05-09T10:33:37.099Z,94952.00
2023-05-09T10:34:37.094Z,94948.00
2023-05-09T10:35:37.712Z,94942.00
2023-05-09T10:36:37.252Z,94946.00
2023-05-09T10:37:38.185Z,94940.00
2023-05-09T10:38:38.170Z,94940.00
2023-05-09T10:39:37.264Z,94940.00
2023-05-09T10:40:37.687Z,94936.00
2023-05-09T10:41:37.290Z,94931.00
2023-05-09T10:42:37.404Z,94929.00
2023-05-09T10:43:37.388Z,94929.00
2023-05-09T10:44:37.436Z,94927.00
2023-05-09T10:45:37.450Z,94927.00
2023-05-09T10:46:37.588Z,94929.00
2023-05-09T10:47:37.689Z,94919.00
2023-05-09T10:48:37.621Z,94919.00
2023-05-09T10:49:37.756Z,94917.00
2023-05-09T10:50:37.781Z,94913.00
2023-05-09T10:51:37.765Z,94909.00
2023-05-09T10:52:37.800Z,94905.00
2023-05-09T10:53:37.897Z,94905.00
2023-05-09T10:54:37.891Z,94905.00
2023-05-09T10:55:37.971Z,94899.00
2023-05-09T10:56:37.876Z,94899.00
2023-05-09T10:57:37.891Z,94897.00
2023-05-09T10:58:37.910Z,94895.00
2023-05-09T10:59:38.007Z,94893.00
2023-05-09T11:00:38.030Z,94893.00
2023-05-09T11:01:38.073Z,94891.00
2023-05-09T11:02:38.052Z,94887.00
2023-05-09T11:03:38.084Z,94876.00
2023-05-09T11:04:38.050Z,94872.00
2023-05-09T11:05:38.159Z,94870.00
2023-05-09T11:06:38.624Z,94866.00
2023-05-09T11:07:38.162Z,94860.00
2023-05-09T11:08:38.090Z,94860.00
2023-05-09T11:09:38.441Z,94856.00
2023-05-09T11:10:38.197Z,94854.00
2023-05-09T11:11:38.689Z,94856.00
2023-05-09T11:12:38.206Z,94848.00
2023-05-09T11:13:38.316Z,94850.00
2023-05-09T11:14:38.352Z,94848.00
2023-05-09T11:15:38.268Z,94848.00
2023-05-09T11:16:38.711Z,94846.00
2023-05-09T11:17:38.523Z,94844.00
2023-05-09T11:18:38.624Z,94842.00
2023-05-09T11:19:38.583Z,94836.00
2023-05-09T11:20:38.573Z,94838.00
2023-05-09T11:21:38.606Z,94834.00
2023-05-09T11:22:39.210Z,94829.00
2023-05-09T11:23:38.580Z,94832.00
2023-05-09T11:24:38.714Z,94831.00
2023-05-09T11:25:39.239Z,94829.00
2023-05-09T11:26:40.157Z,94825.00
2023-05-09T11:27:38.811Z,94823.00
2023-05-09T11:28:38.961Z,94821.00
2023-05-09T11:29:38.936Z,94817.00
2023-05-09T11:30:38.965Z,94813.00
2023-05-09T11:31:39.193Z,94813.00
2023-05-09T11:32:39.126Z,94809.00
2023-05-09T11:33:39.191Z,94809.00
2023-05-09T11:34:39.189Z,94805.00
2023-05-09T11:35:39.645Z,94805.00
2023-05-09T11:36:39.286Z,94807.00
2023-05-09T11:37:39.334Z,94805.00
2023-05-09T11:38:39.248Z,94801.00
2023-05-09T11:39:39.333Z,94799.00
2023-05-09T11:40:39.420Z,94795.00
2023-05-09T11:41:39.561Z,94793.00
2023-05-09T11:42:39.479Z,94791.00
2023-05-09T11:43:39.528Z,94787.00
2023-05-09T11:44:39.559Z,94783.00
2023-05-09T11:45:39.689Z,94783.00
2023-05-09T11:46:40.125Z,94778.00
2023-05-09T11:47:39.728Z,94778.00
2023-05-09T11:48:39.712Z,94776.00